sensor_id;sensor_type;location;lat;lon;timestamp;P1;durP1;ratioP1;P2;durP2;ratioP2
22754;SDS011;11544;42.020;23.094;2023-04-23T00:01:13;10.07;;;5.15;;
22754;SDS011;11544;42.020;23.094;2023-04-23T00:03:42;5.68;;;5.10;;
22754;SDS011;11544;42.020;23.094;2023-04-23T00:06:11;7.45;;;6.32;;
22754;SDS011;11544;42.020;23.094;2023-04-23T00:08:38;6.47;;;5.70;;
22754;SDS011;11544;42.020;23.094;2023-04-23T00:11:07;9.40;;;5.10;;
22754;SDS011;11544;42.020;23.094;2023-04-23T00:13:35;7.78;;;5.53;;
22754;SDS011;11544;42.020;23.094;2023-04-23T00:16:03;5.13;;;4.55;;
22754;SDS011;11544;42.020;23.094;2023-04-23T00:18:30;6.50;;;4.95;;
22754;SDS011;11544;42.020;23.094;2023-04-23T00:20:57;12.05;;;5.38;;
22754;SDS011;11544;42.020;23.094;2023-04-23T00:23:24;4.97;;;4.47;;
22754;SDS011;11544;42.020;23.094;2023-04-23T00:25:52;7.32;;;5.40;;
22754;SDS011;11544;42.020;23.094;2023-04-23T00:28:19;5.35;;;4.53;;
22754;SDS011;11544;42.020;23.094;2023-04-23T00:30:47;6.15;;;4.82;;
22754;SDS011;11544;42.020;23.094;2023-04-23T00:33:14;6.10;;;4.57;;
22754;SDS011;11544;42.020;23.094;2023-04-23T00:35:41;5.55;;;4.65;;
22754;SDS011;11544;42.020;23.094;2023-04-23T00:38:08;5.07;;;4.57;;
22754;SDS011;11544;42.020;23.094;2023-04-23T00:40:35;4.65;;;4.22;;
22754;SDS011;11544;42.020;23.094;2023-04-23T00:43:02;12.88;;;8.65;;
22754;SDS011;11544;42.020;23.094;2023-04-23T00:45:32;6.15;;;5.35;;
22754;SDS011;11544;42.020;23.094;2023-04-23T00:47:59;5.90;;;5.30;;
22754;SDS011;11544;42.020;23.094;2023-04-23T00:50:27;6.70;;;5.22;;
22754;SDS011;11544;42.020;23.094;2023-04-23T00:52:54;9.20;;;5.13;;
22754;SDS011;11544;42.020;23.094;2023-04-23T00:55:22;4.82;;;4.32;;
22754;SDS011;11544;42.020;23.094;2023-04-23T00:57:49;6.50;;;5.50;;
22754;SDS011;11544;42.020;23.094;2023-04-23T01:00:16;5.45;;;4.22;;
22754;SDS011;11544;42.020;23.094;2023-04-23T01:02:43;5.82;;;4.95;;
22754;SDS011;11544;42.020;23.094;2023-04-23T01:05:13;5.22;;;4.72;;
22754;SDS011;11544;42.020;23.094;2023-04-23T01:07:43;6.03;;;5.38;;
22754;SDS011;11544;42.020;23.094;2023-04-23T01:10:12;6.47;;;5.10;;
22754;SDS011;11544;42.020;23.094;2023-04-23T01:12:39;5.60;;;5.03;;
22754;SDS011;11544;42.020;23.094;2023-04-23T01:15:06;5.97;;;4.97;;
22754;SDS011;11544;42.020;23.094;2023-04-23T01:17:34;5.72;;;4.75;;
22754;SDS011;11544;42.020;23.094;2023-04-23T01:20:01;7.03;;;4.80;;
22754;SDS011;11544;42.020;23.094;2023-04-23T01:22:32;5.35;;;4.68;;
22754;SDS011;11544;42.020;23.094;2023-04-23T01:25:03;6.10;;;5.20;;
22754;SDS011;11544;42.020;23.094;2023-04-23T01:27:30;7.07;;;5.70;;
22754;SDS011;11544;42.020;23.094;2023-04-23T01:29:58;5.22;;;4.72;;
22754;SDS011;11544;42.020;23.094;2023-04-23T01:32:26;6.43;;;5.15;;
22754;SDS011;11544;42.020;23.094;2023-04-23T01:34:54;7.50;;;5.20;;
22754;SDS011;11544;42.020;23.094;2023-04-23T01:37:22;6.05;;;5.45;;
22754;SDS011;11544;42.020;23.094;2023-04-23T01:39:50;9.02;;;5.15;;
22754;SDS011;11544;42.020;23.094;2023-04-23T01:42:17;6.72;;;5.07;;
22754;SDS011;11544;42.020;23.094;2023-04-23T01:44:45;8.20;;;5.50;;
22754;SDS011;11544;42.020;23.094;2023-04-23T01:47:12;5.43;;;4.88;;
22754;SDS011;11544;42.020;23.094;2023-04-23T01:49:39;7.18;;;5.40;;
22754;SDS011;11544;42.020;23.094;2023-04-23T01:52:06;6.63;;;5.28;;
22754;SDS011;11544;42.020;23.094;2023-04-23T01:54:33;7.13;;;5.40;;
22754;SDS011;11544;42.020;23.094;2023-04-23T01:56:59;8.13;;;5.75;;
22754;SDS011;11544;42.020;23.094;2023-04-23T01:59:26;7.78;;;5.43;;
22754;SDS011;11544;42.020;23.094;2023-04-23T02:01:53;7.72;;;5.47;;
22754;SDS011;11544;42.020;23.094;2023-04-23T02:04:20;6.43;;;5.28;;
22754;SDS011;11544;42.020;23.094;2023-04-23T02:06:49;6.68;;;5.97;;
22754;SDS011;11544;42.020;23.094;2023-04-23T02:09:16;7.38;;;5.15;;
22754;SDS011;11544;42.020;23.094;2023-04-23T02:11:43;8.65;;;5.65;;
22754;SDS011;11544;42.020;23.094;2023-04-23T02:14:10;6.38;;;5.57;;
22754;SDS011;11544;42.020;23.094;2023-04-23T02:16:38;7.82;;;5.82;;
22754;SDS011;11544;42.020;23.094;2023-04-23T02:19:05;6.50;;;5.18;;
22754;SDS011;11544;42.020;23.094;2023-04-23T02:21:32;7.05;;;5.78;;
22754;SDS011;11544;42.020;23.094;2023-04-23T02:23:59;6.57;;;5.28;;
22754;SDS011;11544;42.020;23.094;2023-04-23T02:26:26;7.40;;;6.53;;
22754;SDS011;11544;42.020;23.094;2023-04-23T02:28:54;7.97;;;5.47;;
22754;SDS011;11544;42.020;23.094;2023-04-23T02:31:21;6.10;;;5.03;;
22754;SDS011;11544;42.020;23.094;2023-04-23T02:33:48;5.93;;;5.07;;
22754;SDS011;11544;42.020;23.094;2023-04-23T02:36:15;8.15;;;5.03;;
22754;SDS011;11544;42.020;23.094;2023-04-23T02:38:42;5.93;;;5.32;;
22754;SDS011;11544;42.020;23.094;2023-04-23T02:41:11;6.35;;;4.82;;
22754;SDS011;11544;42.020;23.094;2023-04-23T02:43:37;6.13;;;4.82;;
22754;SDS011;11544;42.020;23.094;2023-04-23T02:46:05;5.47;;;4.85;;
22754;SDS011;11544;42.020;23.094;2023-04-23T02:48:37;6.20;;;4.63;;
22754;SDS011;11544;42.020;23.094;2023-04-23T02:51:07;9.65;;;5.60;;
22754;SDS011;11544;42.020;23.094;2023-04-23T02:53:36;6.53;;;5.07;;
22754;SDS011;11544;42.020;23.094;2023-04-23T02:56:06;8.85;;;5.20;;
22754;SDS011;11544;42.020;23.094;2023-04-23T02:58:33;9.23;;;5.45;;
22754;SDS011;11544;42.020;23.094;2023-04-23T03:01:00;6.18;;;4.78;;
22754;SDS011;11544;42.020;23.094;2023-04-23T03:03:28;7.07;;;5.53;;
22754;SDS011;11544;42.020;23.094;2023-04-23T03:05:58;8.18;;;5.72;;
22754;SDS011;11544;42.020;23.094;2023-04-23T03:08:27;5.82;;;4.95;;
22754;SDS011;11544;42.020;23.094;2023-04-23T03:10:54;5.57;;;4.70;;
22754;SDS011;11544;42.020;23.094;2023-04-23T03:13:21;8.40;;;4.75;;
22754;SDS011;11544;42.020;23.094;2023-04-23T03:15:48;5.82;;;4.70;;
22754;SDS011;11544;42.020;23.094;2023-04-23T03:18:19;6.80;;;5.07;;
22754;SDS011;11544;42.020;23.094;2023-04-23T03:20:46;7.22;;;5.32;;
22754;SDS011;11544;42.020;23.094;2023-04-23T03:23:28;6.15;;;5.18;;
22754;SDS011;11544;42.020;23.094;2023-04-23T03:25:55;6.80;;;5.45;;
22754;SDS011;11544;42.020;23.094;2023-04-23T03:28:23;6.40;;;5.22;;
22754;SDS011;11544;42.020;23.094;2023-04-23T03:30:49;6.97;;;5.30;;
22754;SDS011;11544;42.020;23.094;2023-04-23T03:33:16;6.95;;;5.40;;
22754;SDS011;11544;42.020;23.094;2023-04-23T03:35:43;6.97;;;6.15;;
22754;SDS011;11544;42.020;23.094;2023-04-23T03:38:10;7.10;;;5.60;;
22754;SDS011;11544;42.020;23.094;2023-04-23T03:40:38;5.68;;;5.05;;
22754;SDS011;11544;42.020;23.094;2023-04-23T03:43:05;7.68;;;6.38;;
22754;SDS011;11544;42.020;23.094;2023-04-23T03:45:32;6.88;;;5.68;;
22754;SDS011;11544;42.020;23.094;2023-04-23T03:47:59;9.60;;;6.38;;
22754;SDS011;11544;42.020;23.094;2023-04-23T03:50:26;11.23;;;5.70;;
22754;SDS011;11544;42.020;23.094;2023-04-23T03:52:54;6.10;;;5.47;;
22754;SDS011;11544;42.020;23.094;2023-04-23T03:55:21;6.93;;;5.72;;
22754;SDS011;11544;42.020;23.094;2023-04-23T03:57:48;7.07;;;5.30;;
22754;SDS011;11544;42.020;23.094;2023-04-23T04:00:15;7.07;;;4.90;;
22754;SDS011;11544;42.020;23.094;2023-04-23T04:02:43;9.68;;;5.53;;
22754;SDS011;11544;42.020;23.094;2023-04-23T04:05:10;7.22;;;5.55;;
22754;SDS011;11544;42.020;23.094;2023-04-23T04:07:37;8.13;;;5.88;;
22754;SDS011;11544;42.020;23.094;2023-04-23T04:10:04;8.40;;;6.25;;
22754;SDS011;11544;42.020;23.094;2023-04-23T04:12:32;10.10;;;6.85;;
22754;SDS011;11544;42.020;23.094;2023-04-23T04:14:59;11.35;;;7.85;;
22754;SDS011;11544;42.020;23.094;2023-04-23T04:17:31;7.95;;;6.70;;
22754;SDS011;11544;42.020;23.094;2023-04-23T04:20:00;9.93;;;7.43;;
22754;SDS011;11544;42.020;23.094;2023-04-23T04:22:28;9.02;;;7.65;;
22754;SDS011;11544;42.020;23.094;2023-04-23T04:24:57;10.00;;;7.90;;
22754;SDS011;11544;42.020;23.094;2023-04-23T04:27:25;12.25;;;8.15;;
22754;SDS011;11544;42.020;23.094;2023-04-23T04:29:54;9.95;;;7.13;;
22754;SDS011;11544;42.020;23.094;2023-04-23T04:32:21;14.50;;;9.02;;
22754;SDS011;11544;42.020;23.094;2023-04-23T04:35:02;11.38;;;8.13;;
22754;SDS011;11544;42.020;23.094;2023-04-23T04:37:30;12.13;;;9.00;;
22754;SDS011;11544;42.020;23.094;2023-04-23T04:39:57;10.18;;;8.30;;
22754;SDS011;11544;42.020;23.094;2023-04-23T04:42:26;11.77;;;8.23;;
22754;SDS011;11544;42.020;23.094;2023-04-23T04:44:53;12.00;;;8.00;;
22754;SDS011;11544;42.020;23.094;2023-04-23T04:47:24;11.82;;;9.23;;
22754;SDS011;11544;42.020;23.094;2023-04-23T04:49:51;10.70;;;8.20;;
22754;SDS011;11544;42.020;23.094;2023-04-23T04:52:18;10.73;;;8.48;;
22754;SDS011;11544;42.020;23.094;2023-04-23T04:54:48;12.52;;;7.78;;
22754;SDS011;11544;42.020;23.094;2023-04-23T04:57:17;9.52;;;7.57;;
22754;SDS011;11544;42.020;23.094;2023-04-23T04:59:47;8.93;;;7.55;;
22754;SDS011;11544;42.020;23.094;2023-04-23T05:02:14;8.70;;;7.05;;
22754;SDS011;11544;42.020;23.094;2023-04-23T05:04:41;15.07;;;8.02;;
22754;SDS011;11544;42.020;23.094;2023-04-23T05:07:09;13.77;;;9.57;;
22754;SDS011;11544;42.020;23.094;2023-04-23T05:09:36;10.77;;;8.55;;
22754;SDS011;11544;42.020;23.094;2023-04-23T05:12:03;8.95;;;7.68;;
22754;SDS011;11544;42.020;23.094;2023-04-23T05:14:36;9.82;;;7.53;;
22754;SDS011;11544;42.020;23.094;2023-04-23T05:17:03;9.40;;;7.20;;
22754;SDS011;11544;42.020;23.094;2023-04-23T05:19:30;11.20;;;7.45;;
22754;SDS011;11544;42.020;23.094;2023-04-23T05:21:58;11.02;;;7.63;;
22754;SDS011;11544;42.020;23.094;2023-04-23T05:24:25;12.23;;;7.10;;
22754;SDS011;11544;42.020;23.094;2023-04-23T05:26:52;9.50;;;7.80;;
22754;SDS011;11544;42.020;23.094;2023-04-23T05:29:19;12.65;;;7.80;;
22754;SDS011;11544;42.020;23.094;2023-04-23T05:31:45;11.05;;;7.82;;
22754;SDS011;11544;42.020;23.094;2023-04-23T05:34:15;14.35;;;7.70;;
22754;SDS011;11544;42.020;23.094;2023-04-23T05:36:42;8.60;;;7.45;;
22754;SDS011;11544;42.020;23.094;2023-04-23T05:39:09;12.18;;;7.80;;
22754;SDS011;11544;42.020;23.094;2023-04-23T05:41:36;11.02;;;7.32;;
22754;SDS011;11544;42.020;23.094;2023-04-23T05:44:03;9.70;;;7.45;;
22754;SDS011;11544;42.020;23.094;2023-04-23T05:46:30;11.45;;;6.97;;
22754;SDS011;11544;42.020;23.094;2023-04-23T05:48:56;14.00;;;7.65;;
22754;SDS011;11544;42.020;23.094;2023-04-23T05:51:24;8.52;;;7.43;;
22754;SDS011;11544;42.020;23.094;2023-04-23T05:53:51;13.48;;;8.60;;
22754;SDS011;11544;42.020;23.094;2023-04-23T05:56:18;14.20;;;9.80;;
22754;SDS011;11544;42.020;23.094;2023-04-23T05:58:45;12.55;;;10.43;;
22754;SDS011;11544;42.020;23.094;2023-04-23T06:01:11;17.23;;;11.77;;
22754;SDS011;11544;42.020;23.094;2023-04-23T06:03:40;16.75;;;11.65;;
22754;SDS011;11544;42.020;23.094;2023-04-23T06:06:11;14.32;;;10.77;;
22754;SDS011;11544;42.020;23.094;2023-04-23T06:08:38;35.50;;;28.40;;
22754;SDS011;11544;42.020;23.094;2023-04-23T06:11:05;18.95;;;14.05;;
22754;SDS011;11544;42.020;23.094;2023-04-23T06:13:36;12.52;;;9.13;;
22754;SDS011;11544;42.020;23.094;2023-04-23T06:16:09;13.73;;;10.18;;
22754;SDS011;11544;42.020;23.094;2023-04-23T06:18:36;13.73;;;8.98;;
22754;SDS011;11544;42.020;23.094;2023-04-23T06:21:07;12.73;;;9.07;;
22754;SDS011;11544;42.020;23.094;2023-04-23T06:23:34;12.20;;;8.77;;
22754;SDS011;11544;42.020;23.094;2023-04-23T06:26:04;11.98;;;8.55;;
22754;SDS011;11544;42.020;23.094;2023-04-23T06:28:30;11.05;;;8.32;;
22754;SDS011;11544;42.020;23.094;2023-04-23T06:30:57;13.13;;;8.40;;
22754;SDS011;11544;42.020;23.094;2023-04-23T06:33:24;9.25;;;7.85;;
22754;SDS011;11544;42.020;23.094;2023-04-23T06:35:51;10.13;;;8.07;;
22754;SDS011;11544;42.020;23.094;2023-04-23T06:38:18;10.70;;;8.65;;
22754;SDS011;11544;42.020;23.094;2023-04-23T06:40:48;11.50;;;8.80;;
22754;SDS011;11544;42.020;23.094;2023-04-23T06:43:15;11.57;;;7.00;;
22754;SDS011;11544;42.020;23.094;2023-04-23T06:45:41;12.10;;;8.65;;
22754;SDS011;11544;42.020;23.094;2023-04-23T06:48:08;11.85;;;8.32;;
22754;SDS011;11544;42.020;23.094;2023-04-23T06:50:36;8.82;;;7.95;;
22754;SDS011;11544;42.020;23.094;2023-04-23T06:53:04;10.77;;;7.22;;
22754;SDS011;11544;42.020;23.094;2023-04-23T06:55:31;8.55;;;6.60;;
22754;SDS011;11544;42.020;23.094;2023-04-23T06:57:57;10.30;;;5.93;;
22754;SDS011;11544;42.020;23.094;2023-04-23T07:00:24;7.25;;;6.45;;
22754;SDS011;11544;42.020;23.094;2023-04-23T07:02:51;8.98;;;6.72;;
22754;SDS011;11544;42.020;23.094;2023-04-23T07:05:18;7.55;;;6.63;;
22754;SDS011;11544;42.020;23.094;2023-04-23T07:07:45;11.85;;;7.30;;
22754;SDS011;11544;42.020;23.094;2023-04-23T07:10:12;9.57;;;7.00;;
22754;SDS011;11544;42.020;23.094;2023-04-23T07:12:42;11.73;;;7.68;;
22754;SDS011;11544;42.020;23.094;2023-04-23T07:15:09;10.25;;;7.25;;
22754;SDS011;11544;42.020;23.094;2023-04-23T07:17:37;7.70;;;6.88;;
22754;SDS011;11544;42.020;23.094;2023-04-23T07:20:04;8.23;;;7.10;;
22754;SDS011;11544;42.020;23.094;2023-04-23T07:22:32;9.15;;;6.35;;
22754;SDS011;11544;42.020;23.094;2023-04-23T07:25:02;7.97;;;6.30;;
22754;SDS011;11544;42.020;23.094;2023-04-23T07:27:30;11.35;;;6.10;;
22754;SDS011;11544;42.020;23.094;2023-04-23T07:29:57;9.15;;;6.18;;
22754;SDS011;11544;42.020;23.094;2023-04-23T07:32:24;7.90;;;5.65;;
22754;SDS011;11544;42.020;23.094;2023-04-23T07:34:53;7.78;;;6.90;;
22754;SDS011;11544;42.020;23.094;2023-04-23T07:37:21;13.63;;;6.90;;
22754;SDS011;11544;42.020;23.094;2023-04-23T07:39:48;7.88;;;6.22;;
22754;SDS011;11544;42.020;23.094;2023-04-23T07:42:15;10.35;;;6.25;;
22754;SDS011;11544;42.020;23.094;2023-04-23T07:44:42;8.43;;;6.20;;
22754;SDS011;11544;42.020;23.094;2023-04-23T07:47:09;9.30;;;6.10;;
22754;SDS011;11544;42.020;23.094;2023-04-23T07:49:36;7.90;;;6.32;;
22754;SDS011;11544;42.020;23.094;2023-04-23T07:52:04;8.18;;;5.90;;
22754;SDS011;11544;42.020;23.094;2023-04-23T07:54:30;7.95;;;5.78;;
22754;SDS011;11544;42.020;23.094;2023-04-23T07:56:57;12.80;;;5.20;;
22754;SDS011;11544;42.020;23.094;2023-04-23T07:59:24;11.70;;;5.70;;
22754;SDS011;11544;42.020;23.094;2023-04-23T08:01:51;9.25;;;5.40;;
22754;SDS011;11544;42.020;23.094;2023-04-23T08:04:18;9.27;;;5.30;;
22754;SDS011;11544;42.020;23.094;2023-04-23T08:06:46;10.00;;;5.70;;
22754;SDS011;11544;42.020;23.094;2023-04-23T08:09:13;7.78;;;4.47;;
22754;SDS011;11544;42.020;23.094;2023-04-23T08:11:40;6.15;;;4.47;;
22754;SDS011;11544;42.020;23.094;2023-04-23T08:14:07;7.85;;;4.70;;
22754;SDS011;11544;42.020;23.094;2023-04-23T08:16:34;5.63;;;4.40;;
22754;SDS011;11544;42.020;23.094;2023-04-23T08:19:04;4.93;;;4.22;;
22754;SDS011;11544;42.020;23.094;2023-04-23T08:21:32;4.85;;;3.80;;
22754;SDS011;11544;42.020;23.094;2023-04-23T08:24:00;4.13;;;3.58;;
22754;SDS011;11544;42.020;23.094;2023-04-23T08:26:28;6.53;;;3.40;;
22754;SDS011;11544;42.020;23.094;2023-04-23T08:28:55;2.88;;;2.65;;
22754;SDS011;11544;42.020;23.094;2023-04-23T08:31:23;3.10;;;2.55;;
22754;SDS011;11544;42.020;23.094;2023-04-23T08:33:52;3.28;;;2.97;;
22754;SDS011;11544;42.020;23.094;2023-04-23T08:36:19;4.05;;;3.50;;
22754;SDS011;11544;42.020;23.094;2023-04-23T08:38:46;7.20;;;3.78;;
22754;SDS011;11544;42.020;23.094;2023-04-23T08:41:13;3.72;;;3.05;;
22754;SDS011;11544;42.020;23.094;2023-04-23T08:43:45;4.57;;;3.28;;
22754;SDS011;11544;42.020;23.094;2023-04-23T08:46:15;5.70;;;3.22;;
22754;SDS011;11544;42.020;23.094;2023-04-23T08:48:45;4.65;;;3.63;;
22754;SDS011;11544;42.020;23.094;2023-04-23T08:51:16;3.58;;;3.13;;
22754;SDS011;11544;42.020;23.094;2023-04-23T08:53:44;4.22;;;3.33;;
22754;SDS011;11544;42.020;23.094;2023-04-23T08:56:18;4.97;;;3.42;;
22754;SDS011;11544;42.020;23.094;2023-04-23T08:58:47;5.68;;;3.75;;
22754;SDS011;11544;42.020;23.094;2023-04-23T09:01:16;6.40;;;3.33;;
22754;SDS011;11544;42.020;23.094;2023-04-23T09:03:43;4.28;;;2.92;;
22754;SDS011;11544;42.020;23.094;2023-04-23T09:06:11;6.60;;;3.50;;
22754;SDS011;11544;42.020;23.094;2023-04-23T09:08:38;8.70;;;3.25;;
22754;SDS011;11544;42.020;23.094;2023-04-23T09:11:05;4.43;;;3.45;;
22754;SDS011;11544;42.020;23.094;2023-04-23T09:13:32;5.38;;;3.08;;
22754;SDS011;11544;42.020;23.094;2023-04-23T09:16:01;4.72;;;2.80;;
22754;SDS011;11544;42.020;23.094;2023-04-23T09:18:28;3.38;;;3.03;;
22754;SDS011;11544;42.020;23.094;2023-04-23T09:20:55;5.25;;;3.10;;
22754;SDS011;11544;42.020;23.094;2023-04-23T09:23:22;4.32;;;3.00;;
22754;SDS011;11544;42.020;23.094;2023-04-23T09:25:49;2.95;;;2.30;;
22754;SDS011;11544;42.020;23.094;2023-04-23T09:28:16;4.47;;;2.50;;
22754;SDS011;11544;42.020;23.094;2023-04-23T09:30:43;2.97;;;2.63;;
22754;SDS011;11544;42.020;23.094;2023-04-23T09:33:11;5.03;;;2.47;;
22754;SDS011;11544;42.020;23.094;2023-04-23T09:35:39;3.78;;;2.20;;
22754;SDS011;11544;42.020;23.094;2023-04-23T09:38:08;4.25;;;2.42;;
22754;SDS011;11544;42.020;23.094;2023-04-23T09:40:36;2.67;;;2.45;;
22754;SDS011;11544;42.020;23.094;2023-04-23T09:43:04;3.03;;;2.72;;
22754;SDS011;11544;42.020;23.094;2023-04-23T09:45:32;4.22;;;2.50;;
22754;SDS011;11544;42.020;23.094;2023-04-23T09:48:00;4.35;;;2.78;;
22754;SDS011;11544;42.020;23.094;2023-04-23T09:50:34;2.88;;;2.67;;
22754;SDS011;11544;42.020;23.094;2023-04-23T09:53:07;4.15;;;2.00;;
22754;SDS011;11544;42.020;23.094;2023-04-23T09:55:36;5.20;;;2.95;;
22754;SDS011;11544;42.020;23.094;2023-04-23T09:58:05;5.18;;;2.90;;
22754;SDS011;11544;42.020;23.094;2023-04-23T10:00:36;5.30;;;2.75;;
22754;SDS011;11544;42.020;23.094;2023-04-23T10:03:07;3.88;;;2.28;;
22754;SDS011;11544;42.020;23.094;2023-04-23T10:05:38;4.80;;;2.65;;
22754;SDS011;11544;42.020;23.094;2023-04-23T10:08:09;3.45;;;2.55;;
22754;SDS011;11544;42.020;23.094;2023-04-23T10:10:39;4.53;;;2.67;;
22754;SDS011;11544;42.020;23.094;2023-04-23T10:13:20;4.13;;;2.70;;
22754;SDS011;11544;42.020;23.094;2023-04-23T10:16:05;6.35;;;2.92;;
22754;SDS011;11544;42.020;23.094;2023-04-23T10:18:49;5.03;;;2.67;;
22754;SDS011;11544;42.020;23.094;2023-04-23T10:21:17;3.28;;;2.35;;
22754;SDS011;11544;42.020;23.094;2023-04-23T10:23:46;6.85;;;2.22;;
22754;SDS011;11544;42.020;23.094;2023-04-23T10:26:15;3.83;;;2.35;;
22754;SDS011;11544;42.020;23.094;2023-04-23T10:28:46;2.97;;;2.35;;
22754;SDS011;11544;42.020;23.094;2023-04-23T10:31:14;5.93;;;2.78;;
22754;SDS011;11544;42.020;23.094;2023-04-23T10:33:43;4.45;;;2.30;;
22754;SDS011;11544;42.020;23.094;2023-04-23T10:36:24;3.67;;;2.33;;
22754;SDS011;11544;42.020;23.094;2023-04-23T10:38:53;3.20;;;1.60;;
22754;SDS011;11544;42.020;23.094;2023-04-23T10:41:24;2.67;;;2.13;;
22754;SDS011;11544;42.020;23.094;2023-04-23T10:43:56;2.30;;;2.10;;
22754;SDS011;11544;42.020;23.094;2023-04-23T10:46:27;3.03;;;2.25;;
22754;SDS011;11544;42.020;23.094;2023-04-23T10:49:11;3.40;;;2.33;;
22754;SDS011;11544;42.020;23.094;2023-04-23T10:51:45;2.45;;;2.00;;
22754;SDS011;11544;42.020;23.094;2023-04-23T10:54:18;3.40;;;2.08;;
22754;SDS011;11544;42.020;23.094;2023-04-23T10:56:46;3.08;;;2.22;;
22754;SDS011;11544;42.020;23.094;2023-04-23T10:59:29;2.55;;;2.35;;
22754;SDS011;11544;42.020;23.094;2023-04-23T11:01:58;3.22;;;2.40;;
22754;SDS011;11544;42.020;23.094;2023-04-23T11:04:40;4.20;;;2.00;;
22754;SDS011;11544;42.020;23.094;2023-04-23T11:07:10;4.57;;;2.13;;
22754;SDS011;11544;42.020;23.094;2023-04-23T11:14:58;3.60;;;2.08;;
22754;SDS011;11544;42.020;23.094;2023-04-23T11:22:36;2.67;;;2.03;;
22754;SDS011;11544;42.020;23.094;2023-04-23T11:25:08;5.28;;;2.50;;
22754;SDS011;11544;42.020;23.094;2023-04-23T11:27:40;2.38;;;1.80;;
22754;SDS011;11544;42.020;23.094;2023-04-23T11:30:17;2.80;;;2.40;;
22754;SDS011;11544;42.020;23.094;2023-04-23T11:32:47;2.58;;;2.33;;
22754;SDS011;11544;42.020;23.094;2023-04-23T11:35:16;3.80;;;2.45;;
22754;SDS011;11544;42.020;23.094;2023-04-23T11:37:44;3.83;;;2.50;;
22754;SDS011;11544;42.020;23.094;2023-04-23T11:40:15;3.08;;;2.08;;
22754;SDS011;11544;42.020;23.094;2023-04-23T11:42:47;5.57;;;3.50;;
22754;SDS011;11544;42.020;23.094;2023-04-23T11:45:16;5.65;;;3.88;;
22754;SDS011;11544;42.020;23.094;2023-04-23T11:47:44;6.55;;;2.70;;
22754;SDS011;11544;42.020;23.094;2023-04-23T11:50:19;4.55;;;2.63;;
22754;SDS011;11544;42.020;23.094;2023-04-23T11:52:47;5.97;;;2.55;;
22754;SDS011;11544;42.020;23.094;2023-04-23T11:55:14;3.33;;;2.38;;
22754;SDS011;11544;42.020;23.094;2023-04-23T11:57:42;3.38;;;2.10;;
22754;SDS011;11544;42.020;23.094;2023-04-23T12:00:20;5.95;;;3.25;;
22754;SDS011;11544;42.020;23.094;2023-04-23T12:02:50;4.95;;;3.50;;
22754;SDS011;11544;42.020;23.094;2023-04-23T12:05:20;4.65;;;2.83;;
22754;SDS011;11544;42.020;23.094;2023-04-23T12:07:49;3.70;;;2.97;;
22754;SDS011;11544;42.020;23.094;2023-04-23T12:10:18;3.92;;;2.78;;
22754;SDS011;11544;42.020;23.094;2023-04-23T12:12:52;5.00;;;2.95;;
22754;SDS011;11544;42.020;23.094;2023-04-23T12:15:19;4.00;;;2.40;;
22754;SDS011;11544;42.020;23.094;2023-04-23T12:17:49;2.88;;;2.30;;
22754;SDS011;11544;42.020;23.094;2023-04-23T12:20:18;4.13;;;2.58;;
22754;SDS011;11544;42.020;23.094;2023-04-23T12:22:46;3.85;;;2.70;;
22754;SDS011;11544;42.020;23.094;2023-04-23T12:25:13;4.20;;;2.50;;
22754;SDS011;11544;42.020;23.094;2023-04-23T12:27:43;3.17;;;2.47;;
22754;SDS011;11544;42.020;23.094;2023-04-23T12:30:11;5.03;;;2.58;;
22754;SDS011;11544;42.020;23.094;2023-04-23T12:32:38;6.07;;;4.07;;
22754;SDS011;11544;42.020;23.094;2023-04-23T12:35:05;4.45;;;3.38;;
22754;SDS011;11544;42.020;23.094;2023-04-23T12:37:35;5.32;;;3.25;;
22754;SDS011;11544;42.020;23.094;2023-04-23T12:40:03;2.53;;;2.33;;
22754;SDS011;11544;42.020;23.094;2023-04-23T12:42:33;8.02;;;4.57;;
22754;SDS011;11544;42.020;23.094;2023-04-23T12:45:05;7.85;;;4.88;;
22754;SDS011;11544;42.020;23.094;2023-04-23T12:47:33;11.15;;;4.93;;
22754;SDS011;11544;42.020;23.094;2023-04-23T12:50:00;17.48;;;7.38;;
22754;SDS011;11544;42.020;23.094;2023-04-23T12:52:29;56.22;;;27.77;;
22754;SDS011;11544;42.020;23.094;2023-04-23T12:54:56;27.75;;;13.63;;
22754;SDS011;11544;42.020;23.094;2023-04-23T12:57:25;76.93;;;35.88;;
22754;SDS011;11544;42.020;23.094;2023-04-23T12:59:53;83.88;;;34.92;;
22754;SDS011;11544;42.020;23.094;2023-04-23T13:02:20;97.10;;;43.80;;
22754;SDS011;11544;42.020;23.094;2023-04-23T13:04:48;9.98;;;5.53;;
22754;SDS011;11544;42.020;23.094;2023-04-23T13:07:15;17.80;;;7.85;;
22754;SDS011;11544;42.020;23.094;2023-04-23T13:09:41;36.90;;;15.15;;
22754;SDS011;11544;42.020;23.094;2023-04-23T13:12:11;5.97;;;4.15;;
22754;SDS011;11544;42.020;23.094;2023-04-23T13:14:38;6.43;;;2.90;;
22754;SDS011;11544;42.020;23.094;2023-04-23T13:17:05;4.07;;;2.80;;
22754;SDS011;11544;42.020;23.094;2023-04-23T13:19:32;4.45;;;2.88;;
22754;SDS011;11544;42.020;23.094;2023-04-23T13:22:02;4.60;;;2.90;;
22754;SDS011;11544;42.020;23.094;2023-04-23T13:24:30;6.72;;;3.90;;
22754;SDS011;11544;42.020;23.094;2023-04-23T13:26:57;38.40;;;19.70;;
22754;SDS011;11544;42.020;23.094;2023-04-23T13:29:25;10.73;;;6.47;;
22754;SDS011;11544;42.020;23.094;2023-04-23T13:31:55;56.65;;;27.42;;
22754;SDS011;11544;42.020;23.094;2023-04-23T13:34:26;42.15;;;20.13;;
22754;SDS011;11544;42.020;23.094;2023-04-23T13:36:53;9.45;;;6.03;;
22754;SDS011;11544;42.020;23.094;2023-04-23T13:39:20;17.85;;;8.10;;
22754;SDS011;11544;42.020;23.094;2023-04-23T13:41:48;13.38;;;6.45;;
22754;SDS011;11544;42.020;23.094;2023-04-23T13:44:34;4.97;;;3.72;;
22754;SDS011;11544;42.020;23.094;2023-04-23T13:47:01;7.53;;;4.40;;
22754;SDS011;11544;42.020;23.094;2023-04-23T13:49:29;10.48;;;5.28;;
22754;SDS011;11544;42.020;23.094;2023-04-23T13:51:56;3.08;;;2.78;;
22754;SDS011;11544;42.020;23.094;2023-04-23T13:54:29;11.68;;;5.53;;
22754;SDS011;11544;42.020;23.094;2023-04-23T13:56:57;16.70;;;7.43;;
22754;SDS011;11544;42.020;23.094;2023-04-23T13:59:24;4.72;;;3.60;;
22754;SDS011;11544;42.020;23.094;2023-04-23T14:01:51;4.65;;;3.10;;
22754;SDS011;11544;42.020;23.094;2023-04-23T14:04:19;3.38;;;3.08;;
22754;SDS011;11544;42.020;23.094;2023-04-23T14:06:48;6.05;;;3.30;;
22754;SDS011;11544;42.020;23.094;2023-04-23T14:09:15;4.32;;;2.92;;
22754;SDS011;11544;42.020;23.094;2023-04-23T14:11:42;2.95;;;2.53;;
22754;SDS011;11544;42.020;23.094;2023-04-23T14:14:08;4.32;;;2.90;;
22754;SDS011;11544;42.020;23.094;2023-04-23T14:16:38;4.38;;;2.70;;
22754;SDS011;11544;42.020;23.094;2023-04-23T14:19:09;2.78;;;2.47;;
22754;SDS011;11544;42.020;23.094;2023-04-23T14:21:36;4.90;;;2.80;;
22754;SDS011;11544;42.020;23.094;2023-04-23T14:24:16;6.20;;;2.92;;
22754;SDS011;11544;42.020;23.094;2023-04-23T14:26:53;4.15;;;3.10;;
22754;SDS011;11544;42.020;23.094;2023-04-23T14:32:12;3.97;;;2.63;;
22754;SDS011;11544;42.020;23.094;2023-04-23T14:34:39;5.13;;;2.35;;
22754;SDS011;11544;42.020;23.094;2023-04-23T14:37:06;3.35;;;2.35;;
22754;SDS011;11544;42.020;23.094;2023-04-23T14:39:33;4.68;;;2.50;;
22754;SDS011;11544;42.020;23.094;2023-04-23T14:42:00;6.20;;;2.50;;
22754;SDS011;11544;42.020;23.094;2023-04-23T14:44:28;4.03;;;2.55;;
22754;SDS011;11544;42.020;23.094;2023-04-23T14:46:55;3.88;;;2.90;;
22754;SDS011;11544;42.020;23.094;2023-04-23T14:49:23;6.40;;;3.00;;
22754;SDS011;11544;42.020;23.094;2023-04-23T14:51:51;4.07;;;3.25;;